sensor_id;sensor_type;location;lat;lon;timestamp;P1;durP1;ratioP1;P2;durP2;ratioP2
4756;SDS011;2392;52.578;13.426;2023-12-04T00:02:22;41.20;;;16.30;;
4756;SDS011;2392;52.578;13.426;2023-12-04T00:04:50;39.93;;;17.57;;
4756;SDS011;2392;52.578;13.426;2023-12-04T00:07:17;40.83;;;16.07;;
4756;SDS011;2392;52.578;13.426;2023-12-04T00:09:43;37.00;;;15.77;;
4756;SDS011;2392;52.578;13.426;2023-12-04T00:12:10;36.73;;;16.20;;
4756;SDS011;2392;52.578;13.426;2023-12-04T00:14:37;44.17;;;17.47;;
4756;SDS011;2392;52.578;13.426;2023-12-04T00:17:03;39.70;;;17.40;;
4756;SDS011;2392;52.578;13.426;2023-12-04T00:19:30;39.67;;;18.20;;
4756;SDS011;2392;52.578;13.426;2023-12-04T00:21:58;39.27;;;16.97;;
4756;SDS011;2392;52.578;13.426;2023-12-04T00:24:24;43.87;;;19.80;;
4756;SDS011;2392;52.578;13.426;2023-12-04T00:26:51;41.57;;;17.40;;
4756;SDS011;2392;52.578;13.426;2023-12-04T00:29:18;42.00;;;17.80;;
4756;SDS011;2392;52.578;13.426;2023-12-04T00:31:44;34.70;;;15.70;;
4756;SDS011;2392;52.578;13.426;2023-12-04T00:34:11;44.87;;;17.90;;
4756;SDS011;2392;52.578;13.426;2023-12-04T00:36:38;41.73;;;17.90;;
4756;SDS011;2392;52.578;13.426;2023-12-04T00:39:06;36.03;;;15.80;;
4756;SDS011;2392;52.578;13.426;2023-12-04T00:41:33;40.33;;;15.47;;
4756;SDS011;2392;52.578;13.426;2023-12-04T00:43:59;38.87;;;15.70;;
4756;SDS011;2392;52.578;13.426;2023-12-04T00:46:26;41.40;;;16.53;;
4756;SDS011;2392;52.578;13.426;2023-12-04T00:48:53;40.93;;;17.60;;
4756;SDS011;2392;52.578;13.426;2023-12-04T00:51:19;38.30;;;14.80;;
4756;SDS011;2392;52.578;13.426;2023-12-04T00:53:46;37.17;;;15.30;;
4756;SDS011;2392;52.578;13.426;2023-12-04T00:56:14;38.40;;;16.27;;
4756;SDS011;2392;52.578;13.426;2023-12-04T00:58:41;41.40;;;16.60;;
4756;SDS011;2392;52.578;13.426;2023-12-04T01:01:07;39.80;;;15.23;;
4756;SDS011;2392;52.578;13.426;2023-12-04T01:03:34;42.90;;;16.70;;
4756;SDS011;2392;52.578;13.426;2023-12-04T01:06:01;38.53;;;15.97;;
4756;SDS011;2392;52.578;13.426;2023-12-04T01:08:27;35.30;;;15.10;;
4756;SDS011;2392;52.578;13.426;2023-12-04T01:10:54;30.80;;;13.73;;
4756;SDS011;2392;52.578;13.426;2023-12-04T01:13:22;39.13;;;16.17;;
4756;SDS011;2392;52.578;13.426;2023-12-04T01:15:49;37.37;;;15.50;;
4756;SDS011;2392;52.578;13.426;2023-12-04T01:18:15;37.30;;;15.17;;
4756;SDS011;2392;52.578;13.426;2023-12-04T01:20:43;35.10;;;13.70;;
4756;SDS011;2392;52.578;13.426;2023-12-04T01:23:09;42.27;;;16.40;;
4756;SDS011;2392;52.578;13.426;2023-12-04T01:25:36;38.70;;;15.70;;
4756;SDS011;2392;52.578;13.426;2023-12-04T01:28:03;39.70;;;15.37;;
4756;SDS011;2392;52.578;13.426;2023-12-04T01:30:31;35.80;;;15.37;;
4756;SDS011;2392;52.578;13.426;2023-12-04T01:32:57;37.40;;;15.87;;
4756;SDS011;2392;52.578;13.426;2023-12-04T01:35:25;45.03;;;16.60;;
4756;SDS011;2392;52.578;13.426;2023-12-04T01:37:51;38.93;;;16.07;;
4756;SDS011;2392;52.578;13.426;2023-12-04T01:40:18;34.00;;;14.80;;
4756;SDS011;2392;52.578;13.426;2023-12-04T01:42:45;42.67;;;15.70;;
4756;SDS011;2392;52.578;13.426;2023-12-04T01:45:11;41.10;;;15.80;;
4756;SDS011;2392;52.578;13.426;2023-12-04T01:47:40;36.07;;;14.67;;
4756;SDS011;2392;52.578;13.426;2023-12-04T01:50:07;40.03;;;17.17;;
4756;SDS011;2392;52.578;13.426;2023-12-04T01:52:34;36.30;;;14.70;;
4756;SDS011;2392;52.578;13.426;2023-12-04T01:55:02;42.87;;;17.30;;
4756;SDS011;2392;52.578;13.426;2023-12-04T01:57:30;38.70;;;16.13;;
4756;SDS011;2392;52.578;13.426;2023-12-04T01:59:57;35.73;;;15.53;;
4756;SDS011;2392;52.578;13.426;2023-12-04T02:02:24;36.67;;;16.13;;
4756;SDS011;2392;52.578;13.426;2023-12-04T02:04:52;38.53;;;16.00;;
4756;SDS011;2392;52.578;13.426;2023-12-04T02:07:21;41.93;;;17.13;;
4756;SDS011;2392;52.578;13.426;2023-12-04T02:09:48;38.67;;;16.33;;
4756;SDS011;2392;52.578;13.426;2023-12-04T02:12:15;38.43;;;16.13;;
4756;SDS011;2392;52.578;13.426;2023-12-04T02:14:41;42.53;;;16.97;;
4756;SDS011;2392;52.578;13.426;2023-12-04T02:17:09;36.87;;;15.60;;
4756;SDS011;2392;52.578;13.426;2023-12-04T02:19:37;36.40;;;15.97;;
4756;SDS011;2392;52.578;13.426;2023-12-04T02:22:05;35.33;;;16.23;;
4756;SDS011;2392;52.578;13.426;2023-12-04T02:24:33;34.73;;;14.63;;
4756;SDS011;2392;52.578;13.426;2023-12-04T02:27:03;38.83;;;16.70;;
4756;SDS011;2392;52.578;13.426;2023-12-04T02:29:36;38.50;;;15.70;;
4756;SDS011;2392;52.578;13.426;2023-12-04T02:32:08;36.87;;;16.53;;
4756;SDS011;2392;52.578;13.426;2023-12-04T02:34:37;35.30;;;15.23;;
4756;SDS011;2392;52.578;13.426;2023-12-04T02:37:06;39.43;;;16.57;;
4756;SDS011;2392;52.578;13.426;2023-12-04T02:39:36;46.00;;;16.43;;
4756;SDS011;2392;52.578;13.426;2023-12-04T02:42:03;37.63;;;16.80;;
4756;SDS011;2392;52.578;13.426;2023-12-04T02:44:30;40.37;;;16.43;;
4756;SDS011;2392;52.578;13.426;2023-12-04T02:46:57;45.80;;;18.27;;
4756;SDS011;2392;52.578;13.426;2023-12-04T02:49:24;36.17;;;15.10;;
4756;SDS011;2392;52.578;13.426;2023-12-04T02:51:51;41.20;;;16.50;;
4756;SDS011;2392;52.578;13.426;2023-12-04T02:54:18;39.97;;;16.57;;
4756;SDS011;2392;52.578;13.426;2023-12-04T02:56:46;40.60;;;16.20;;
4756;SDS011;2392;52.578;13.426;2023-12-04T02:59:12;40.73;;;15.27;;
4756;SDS011;2392;52.578;13.426;2023-12-04T03:01:39;40.27;;;15.40;;
4756;SDS011;2392;52.578;13.426;2023-12-04T03:04:06;38.23;;;17.00;;
4756;SDS011;2392;52.578;13.426;2023-12-04T03:06:32;36.17;;;15.57;;
4756;SDS011;2392;52.578;13.426;2023-12-04T03:08:59;41.73;;;15.90;;
4756;SDS011;2392;52.578;13.426;2023-12-04T03:11:25;41.27;;;15.10;;
4756;SDS011;2392;52.578;13.426;2023-12-04T03:13:53;39.27;;;16.30;;
4756;SDS011;2392;52.578;13.426;2023-12-04T03:16:21;38.40;;;16.20;;
4756;SDS011;2392;52.578;13.426;2023-12-04T03:18:48;37.47;;;15.30;;
4756;SDS011;2392;52.578;13.426;2023-12-04T03:21:15;35.70;;;15.90;;
4756;SDS011;2392;52.578;13.426;2023-12-04T03:23:41;38.70;;;15.87;;
4756;SDS011;2392;52.578;13.426;2023-12-04T03:26:08;41.00;;;18.03;;
4756;SDS011;2392;52.578;13.426;2023-12-04T03:28:37;39.40;;;16.83;;
4756;SDS011;2392;52.578;13.426;2023-12-04T03:31:06;40.03;;;15.93;;
4756;SDS011;2392;52.578;13.426;2023-12-04T03:33:33;39.30;;;15.47;;
4756;SDS011;2392;52.578;13.426;2023-12-04T03:35:59;42.93;;;15.70;;
4756;SDS011;2392;52.578;13.426;2023-12-04T03:38:26;39.47;;;16.07;;
4756;SDS011;2392;52.578;13.426;2023-12-04T03:40:54;42.47;;;16.40;;
4756;SDS011;2392;52.578;13.426;2023-12-04T03:43:20;43.33;;;17.10;;
4756;SDS011;2392;52.578;13.426;2023-12-04T03:45:47;41.03;;;17.83;;
4756;SDS011;2392;52.578;13.426;2023-12-04T03:48:15;40.20;;;16.23;;
4756;SDS011;2392;52.578;13.426;2023-12-04T03:50:42;43.43;;;17.20;;
4756;SDS011;2392;52.578;13.426;2023-12-04T03:53:09;36.87;;;15.50;;
4756;SDS011;2392;52.578;13.426;2023-12-04T03:55:36;39.70;;;15.90;;
4756;SDS011;2392;52.578;13.426;2023-12-04T03:58:03;38.83;;;16.80;;
4756;SDS011;2392;52.578;13.426;2023-12-04T04:00:30;41.90;;;15.53;;
4756;SDS011;2392;52.578;13.426;2023-12-04T04:02:56;37.60;;;16.63;;
4756;SDS011;2392;52.578;13.426;2023-12-04T04:05:24;36.97;;;16.47;;
4756;SDS011;2392;52.578;13.426;2023-12-04T04:07:51;39.10;;;16.13;;
4756;SDS011;2392;52.578;13.426;2023-12-04T04:10:17;35.90;;;15.40;;
4756;SDS011;2392;52.578;13.426;2023-12-04T04:12:44;36.33;;;15.30;;
4756;SDS011;2392;52.578;13.426;2023-12-04T04:15:11;36.67;;;15.10;;
4756;SDS011;2392;52.578;13.426;2023-12-04T04:17:37;35.77;;;16.47;;
4756;SDS011;2392;52.578;13.426;2023-12-04T04:20:05;42.33;;;17.20;;
4756;SDS011;2392;52.578;13.426;2023-12-04T04:22:34;47.33;;;17.80;;
4756;SDS011;2392;52.578;13.426;2023-12-04T04:25:03;37.30;;;17.00;;
4756;SDS011;2392;52.578;13.426;2023-12-04T04:27:31;38.07;;;16.23;;
4756;SDS011;2392;52.578;13.426;2023-12-04T04:29:57;42.23;;;18.10;;
4756;SDS011;2392;52.578;13.426;2023-12-04T04:32:24;42.53;;;17.13;;
4756;SDS011;2392;52.578;13.426;2023-12-04T04:34:51;43.50;;;17.93;;
4756;SDS011;2392;52.578;13.426;2023-12-04T04:37:18;40.43;;;14.93;;
4756;SDS011;2392;52.578;13.426;2023-12-04T04:39:46;39.90;;;16.17;;
4756;SDS011;2392;52.578;13.426;2023-12-04T04:42:13;40.03;;;18.00;;
4756;SDS011;2392;52.578;13.426;2023-12-04T04:44:40;35.00;;;16.00;;
4756;SDS011;2392;52.578;13.426;2023-12-04T04:47:07;35.20;;;15.97;;
4756;SDS011;2392;52.578;13.426;2023-12-04T04:49:33;42.80;;;16.77;;
4756;SDS011;2392;52.578;13.426;2023-12-04T04:52:00;38.63;;;15.87;;
4756;SDS011;2392;52.578;13.426;2023-12-04T04:54:26;36.77;;;16.07;;
4756;SDS011;2392;52.578;13.426;2023-12-04T04:56:57;39.73;;;16.60;;
4756;SDS011;2392;52.578;13.426;2023-12-04T04:59:24;42.20;;;15.47;;
4756;SDS011;2392;52.578;13.426;2023-12-04T05:01:52;36.23;;;15.77;;
4756;SDS011;2392;52.578;13.426;2023-12-04T05:04:18;40.40;;;15.80;;
4756;SDS011;2392;52.578;13.426;2023-12-04T05:06:45;38.43;;;17.17;;
4756;SDS011;2392;52.578;13.426;2023-12-04T05:09:12;39.07;;;15.00;;
4756;SDS011;2392;52.578;13.426;2023-12-04T05:11:38;36.13;;;15.10;;
4756;SDS011;2392;52.578;13.426;2023-12-04T05:14:06;41.67;;;16.63;;
4756;SDS011;2392;52.578;13.426;2023-12-04T05:16:33;34.60;;;14.10;;
4756;SDS011;2392;52.578;13.426;2023-12-04T05:19:00;34.27;;;14.90;;
4756;SDS011;2392;52.578;13.426;2023-12-04T05:21:26;37.20;;;15.10;;
4756;SDS011;2392;52.578;13.426;2023-12-04T05:23:53;35.93;;;13.97;;
4756;SDS011;2392;52.578;13.426;2023-12-04T05:26:20;34.30;;;14.20;;
4756;SDS011;2392;52.578;13.426;2023-12-04T05:28:46;36.07;;;15.73;;
4756;SDS011;2392;52.578;13.426;2023-12-04T05:31:14;34.33;;;14.20;;
4756;SDS011;2392;52.578;13.426;2023-12-04T05:33:41;33.87;;;14.57;;
4756;SDS011;2392;52.578;13.426;2023-12-04T05:36:08;29.80;;;13.93;;
4756;SDS011;2392;52.578;13.426;2023-12-04T05:38:35;40.27;;;15.50;;
4756;SDS011;2392;52.578;13.426;2023-12-04T05:41:02;37.73;;;16.23;;
4756;SDS011;2392;52.578;13.426;2023-12-04T05:43:29;34.67;;;15.00;;
4756;SDS011;2392;52.578;13.426;2023-12-04T05:45:56;32.63;;;15.13;;
4756;SDS011;2392;52.578;13.426;2023-12-04T05:48:24;35.73;;;14.70;;
4756;SDS011;2392;52.578;13.426;2023-12-04T05:50:50;33.87;;;13.70;;
4756;SDS011;2392;52.578;13.426;2023-12-04T05:53:17;38.17;;;14.93;;
4756;SDS011;2392;52.578;13.426;2023-12-04T05:55:45;36.13;;;15.57;;
4756;SDS011;2392;52.578;13.426;2023-12-04T05:58:12;32.07;;;13.93;;
4756;SDS011;2392;52.578;13.426;2023-12-04T06:00:39;34.00;;;14.17;;
4756;SDS011;2392;52.578;13.426;2023-12-04T06:03:06;38.43;;;15.13;;
4756;SDS011;2392;52.578;13.426;2023-12-04T06:05:34;34.20;;;14.67;;
4756;SDS011;2392;52.578;13.426;2023-12-04T06:08:00;32.20;;;14.00;;
4756;SDS011;2392;52.578;13.426;2023-12-04T06:10:27;37.50;;;15.43;;
4756;SDS011;2392;52.578;13.426;2023-12-04T06:12:54;36.67;;;15.30;;
4756;SDS011;2392;52.578;13.426;2023-12-04T06:15:20;37.10;;;13.87;;
4756;SDS011;2392;52.578;13.426;2023-12-04T06:17:47;37.10;;;14.87;;
4756;SDS011;2392;52.578;13.426;2023-12-04T06:20:13;35.67;;;15.83;;
4756;SDS011;2392;52.578;13.426;2023-12-04T06:22:42;37.70;;;14.93;;
4756;SDS011;2392;52.578;13.426;2023-12-04T06:25:10;37.33;;;16.50;;
4756;SDS011;2392;52.578;13.426;2023-12-04T06:27:38;35.70;;;14.47;;
4756;SDS011;2392;52.578;13.426;2023-12-04T06:30:05;31.83;;;13.97;;
4756;SDS011;2392;52.578;13.426;2023-12-04T06:32:33;36.50;;;16.23;;
4756;SDS011;2392;52.578;13.426;2023-12-04T06:35:00;36.33;;;14.60;;
4756;SDS011;2392;52.578;13.426;2023-12-04T06:37:28;38.83;;;15.67;;
4756;SDS011;2392;52.578;13.426;2023-12-04T06:39:56;31.03;;;14.17;;
4756;SDS011;2392;52.578;13.426;2023-12-04T06:42:27;39.03;;;15.50;;
4756;SDS011;2392;52.578;13.426;2023-12-04T06:44:54;33.50;;;14.47;;
4756;SDS011;2392;52.578;13.426;2023-12-04T06:47:22;36.03;;;14.20;;
4756;SDS011;2392;52.578;13.426;2023-12-04T06:49:50;35.53;;;15.60;;
4756;SDS011;2392;52.578;13.426;2023-12-04T06:52:17;35.77;;;14.47;;
4756;SDS011;2392;52.578;13.426;2023-12-04T06:54:43;36.20;;;15.37;;
4756;SDS011;2392;52.578;13.426;2023-12-04T06:57:11;33.00;;;13.77;;
4756;SDS011;2392;52.578;13.426;2023-12-04T06:59:39;37.13;;;16.20;;
4756;SDS011;2392;52.578;13.426;2023-12-04T07:02:06;32.27;;;13.20;;
4756;SDS011;2392;52.578;13.426;2023-12-04T07:04:33;34.03;;;14.83;;
4756;SDS011;2392;52.578;13.426;2023-12-04T07:07:00;32.63;;;13.47;;
4756;SDS011;2392;52.578;13.426;2023-12-04T07:09:30;36.27;;;14.50;;
4756;SDS011;2392;52.578;13.426;2023-12-04T07:11:56;35.30;;;15.73;;
4756;SDS011;2392;52.578;13.426;2023-12-04T07:14:24;38.80;;;16.07;;
4756;SDS011;2392;52.578;13.426;2023-12-04T07:16:51;39.97;;;15.63;;
4756;SDS011;2392;52.578;13.426;2023-12-04T07:19:18;38.03;;;15.20;;
4756;SDS011;2392;52.578;13.426;2023-12-04T07:21:45;40.00;;;16.53;;
4756;SDS011;2392;52.578;13.426;2023-12-04T07:24:13;35.40;;;16.50;;
4756;SDS011;2392;52.578;13.426;2023-12-04T07:26:41;36.87;;;15.43;;
4756;SDS011;2392;52.578;13.426;2023-12-04T07:29:08;37.37;;;15.87;;
4756;SDS011;2392;52.578;13.426;2023-12-04T07:31:36;34.57;;;14.17;;
4756;SDS011;2392;52.578;13.426;2023-12-04T07:34:03;40.73;;;15.40;;
4756;SDS011;2392;52.578;13.426;2023-12-04T07:36:30;34.40;;;15.37;;
4756;SDS011;2392;52.578;13.426;2023-12-04T07:38:57;40.93;;;16.30;;
4756;SDS011;2392;52.578;13.426;2023-12-04T07:41:24;36.00;;;15.47;;
4756;SDS011;2392;52.578;13.426;2023-12-04T07:43:50;38.47;;;15.53;;
4756;SDS011;2392;52.578;13.426;2023-12-04T07:46:17;36.67;;;14.60;;
4756;SDS011;2392;52.578;13.426;2023-12-04T07:48:45;33.63;;;13.83;;
4756;SDS011;2392;52.578;13.426;2023-12-04T07:51:12;34.43;;;14.47;;
4756;SDS011;2392;52.578;13.426;2023-12-04T07:53:38;32.73;;;14.00;;
4756;SDS011;2392;52.578;13.426;2023-12-04T07:56:06;29.43;;;13.37;;
4756;SDS011;2392;52.578;13.426;2023-12-04T07:58:33;38.57;;;15.40;;
4756;SDS011;2392;52.578;13.426;2023-12-04T08:01:00;34.30;;;14.23;;
4756;SDS011;2392;52.578;13.426;2023-12-04T08:03:27;30.87;;;12.90;;
4756;SDS011;2392;52.578;13.426;2023-12-04T08:05:55;35.20;;;14.40;;
4756;SDS011;2392;52.578;13.426;2023-12-04T08:08:23;34.77;;;14.83;;
4756;SDS011;2392;52.578;13.426;2023-12-04T08:10:50;35.57;;;15.03;;
4756;SDS011;2392;52.578;13.426;2023-12-04T08:13:16;34.20;;;14.17;;
4756;SDS011;2392;52.578;13.426;2023-12-04T08:15:43;34.70;;;14.70;;
4756;SDS011;2392;52.578;13.426;2023-12-04T08:18:10;34.20;;;14.77;;
4756;SDS011;2392;52.578;13.426;2023-12-04T08:20:37;33.20;;;14.30;;
4756;SDS011;2392;52.578;13.426;2023-12-04T08:23:05;35.60;;;14.57;;
4756;SDS011;2392;52.578;13.426;2023-12-04T08:25:31;37.80;;;15.03;;
4756;SDS011;2392;52.578;13.426;2023-12-04T08:27:58;36.13;;;16.37;;
4756;SDS011;2392;52.578;13.426;2023-12-04T08:30:25;34.50;;;14.60;;
4756;SDS011;2392;52.578;13.426;2023-12-04T08:32:53;34.00;;;14.17;;
4756;SDS011;2392;52.578;13.426;2023-12-04T08:35:19;35.57;;;14.90;;
4756;SDS011;2392;52.578;13.426;2023-12-04T08:37:47;40.00;;;15.40;;
4756;SDS011;2392;52.578;13.426;2023-12-04T08:40:15;35.80;;;15.67;;
4756;SDS011;2392;52.578;13.426;2023-12-04T08:42:42;34.10;;;14.50;;
4756;SDS011;2392;52.578;13.426;2023-12-04T08:45:09;32.97;;;14.63;;
4756;SDS011;2392;52.578;13.426;2023-12-04T08:47:36;33.23;;;14.80;;
4756;SDS011;2392;52.578;13.426;2023-12-04T08:50:03;33.63;;;14.47;;
4756;SDS011;2392;52.578;13.426;2023-12-04T08:52:31;34.17;;;13.83;;
4756;SDS011;2392;52.578;13.426;2023-12-04T08:54:57;34.70;;;14.50;;
4756;SDS011;2392;52.578;13.426;2023-12-04T08:57:25;34.33;;;14.50;;
4756;SDS011;2392;52.578;13.426;2023-12-04T08:59:52;37.50;;;16.13;;
4756;SDS011;2392;52.578;13.426;2023-12-04T09:02:19;34.17;;;14.87;;
4756;SDS011;2392;52.578;13.426;2023-12-04T09:04:46;33.20;;;14.77;;
4756;SDS011;2392;52.578;13.426;2023-12-04T09:07:12;32.00;;;13.90;;
4756;SDS011;2392;52.578;13.426;2023-12-04T09:09:40;31.80;;;14.57;;
4756;SDS011;2392;52.578;13.426;2023-12-04T09:12:06;34.83;;;13.67;;
4756;SDS011;2392;52.578;13.426;2023-12-04T09:14:35;33.60;;;14.87;;
4756;SDS011;2392;52.578;13.426;2023-12-04T09:17:02;33.47;;;14.73;;
4756;SDS011;2392;52.578;13.426;2023-12-04T09:19:29;31.23;;;13.87;;
4756;SDS011;2392;52.578;13.426;2023-12-04T09:21:56;33.97;;;15.90;;
4756;SDS011;2392;52.578;13.426;2023-12-04T09:24:23;34.17;;;14.77;;
4756;SDS011;2392;52.578;13.426;2023-12-04T09:26:49;35.47;;;14.57;;
4756;SDS011;2392;52.578;13.426;2023-12-04T09:29:16;37.20;;;15.37;;
4756;SDS011;2392;52.578;13.426;2023-12-04T09:31:45;35.07;;;15.90;;
4756;SDS011;2392;52.578;13.426;2023-12-04T09:34:11;36.13;;;14.60;;
4756;SDS011;2392;52.578;13.426;2023-12-04T09:36:38;34.57;;;14.13;;
4756;SDS011;2392;52.578;13.426;2023-12-04T09:39:04;34.93;;;13.30;;
4756;SDS011;2392;52.578;13.426;2023-12-04T09:41:31;33.37;;;14.13;;
4756;SDS011;2392;52.578;13.426;2023-12-04T09:43:58;32.47;;;13.33;;
4756;SDS011;2392;52.578;13.426;2023-12-04T09:46:26;38.27;;;16.43;;
4756;SDS011;2392;52.578;13.426;2023-12-04T09:48:54;36.10;;;15.10;;
4756;SDS011;2392;52.578;13.426;2023-12-04T09:51:24;33.03;;;13.73;;
4756;SDS011;2392;52.578;13.426;2023-12-04T09:53:55;35.73;;;14.03;;
4756;SDS011;2392;52.578;13.426;2023-12-04T09:56:25;30.50;;;12.73;;
4756;SDS011;2392;52.578;13.426;2023-12-04T09:58:54;31.70;;;14.67;;
4756;SDS011;2392;52.578;13.426;2023-12-04T10:01:24;34.60;;;14.10;;
4756;SDS011;2392;52.578;13.426;2023-12-04T10:03:52;32.57;;;13.07;;
4756;SDS011;2392;52.578;13.426;2023-12-04T10:06:22;32.70;;;13.57;;
4756;SDS011;2392;52.578;13.426;2023-12-04T10:08:52;36.17;;;14.67;;
4756;SDS011;2392;52.578;13.426;2023-12-04T10:11:20;32.40;;;13.70;;
4756;SDS011;2392;52.578;13.426;2023-12-04T10:13:48;29.27;;;12.30;;
4756;SDS011;2392;52.578;13.426;2023-12-04T10:16:14;30.37;;;12.63;;
4756;SDS011;2392;52.578;13.426;2023-12-04T10:18:55;35.20;;;15.53;;
4756;SDS011;2392;52.578;13.426;2023-12-04T10:21:23;30.90;;;13.27;;
4756;SDS011;2392;52.578;13.426;2023-12-04T10:23:58;29.30;;;12.60;;
4756;SDS011;2392;52.578;13.426;2023-12-04T10:26:24;32.20;;;11.43;;
4756;SDS011;2392;52.578;13.426;2023-12-04T10:28:58;28.30;;;12.20;;
4756;SDS011;2392;52.578;13.426;2023-12-04T10:31:25;32.37;;;12.00;;
4756;SDS011;2392;52.578;13.426;2023-12-04T10:33:52;30.70;;;12.13;;
4756;SDS011;2392;52.578;13.426;2023-12-04T10:36:19;29.47;;;11.50;;
4756;SDS011;2392;52.578;13.426;2023-12-04T10:38:48;29.37;;;12.30;;
4756;SDS011;2392;52.578;13.426;2023-12-04T10:41:25;29.03;;;11.70;;
4756;SDS011;2392;52.578;13.426;2023-12-04T10:43:51;30.47;;;13.30;;
4756;SDS011;2392;52.578;13.426;2023-12-04T10:46:18;29.67;;;12.07;;
4756;SDS011;2392;52.578;13.426;2023-12-04T10:48:46;32.30;;;12.53;;
4756;SDS011;2392;52.578;13.426;2023-12-04T10:51:14;30.20;;;12.77;;
4756;SDS011;2392;52.578;13.426;2023-12-04T10:53:43;30.37;;;12.47;;
4756;SDS011;2392;52.578;13.426;2023-12-04T10:56:14;30.90;;;12.40;;
4756;SDS011;2392;52.578;13.426;2023-12-04T10:58:44;30.47;;;12.03;;
4756;SDS011;2392;52.578;13.426;2023-12-04T11:01:15;30.50;;;11.40;;
4756;SDS011;2392;52.578;13.426;2023-12-04T11:03:44;31.63;;;12.17;;
4756;SDS011;2392;52.578;13.426;2023-12-04T11:06:13;33.33;;;12.87;;
4756;SDS011;2392;52.578;13.426;2023-12-04T11:08:44;30.97;;;11.80;;
4756;SDS011;2392;52.578;13.426;2023-12-04T11:11:18;30.20;;;12.43;;
4756;SDS011;2392;52.578;13.426;2023-12-04T11:13:54;29.70;;;12.00;;
4756;SDS011;2392;52.578;13.426;2023-12-04T11:16:27;28.73;;;10.90;;
4756;SDS011;2392;52.578;13.426;2023-12-04T11:18:56;28.40;;;11.43;;
4756;SDS011;2392;52.578;13.426;2023-12-04T11:21:27;27.70;;;10.77;;
4756;SDS011;2392;52.578;13.426;2023-12-04T11:23:55;29.10;;;11.97;;
4756;SDS011;2392;52.578;13.426;2023-12-04T11:26:24;38.60;;;11.43;;
4756;SDS011;2392;52.578;13.426;2023-12-04T11:28:52;28.57;;;12.20;;
4756;SDS011;2392;52.578;13.426;2023-12-04T11:31:19;30.23;;;11.43;;
4756;SDS011;2392;52.578;13.426;2023-12-04T11:33:46;27.97;;;11.77;;
4756;SDS011;2392;52.578;13.426;2023-12-04T11:36:13;35.30;;;12.17;;
4756;SDS011;2392;52.578;13.426;2023-12-04T11:38:43;30.17;;;11.97;;
4756;SDS011;2392;52.578;13.426;2023-12-04T11:41:14;27.60;;;11.47;;
4756;SDS011;2392;52.578;13.426;2023-12-04T11:43:44;27.93;;;11.30;;
4756;SDS011;2392;52.578;13.426;2023-12-04T11:46:12;31.40;;;12.90;;
4756;SDS011;2392;52.578;13.426;2023-12-04T11:48:39;28.20;;;10.80;;
4756;SDS011;2392;52.578;13.426;2023-12-04T11:51:06;29.40;;;11.17;;
4756;SDS011;2392;52.578;13.426;2023-12-04T11:53:36;27.30;;;10.30;;
4756;SDS011;2392;52.578;13.426;2023-12-04T11:56:08;26.67;;;10.70;;
4756;SDS011;2392;52.578;13.426;2023-12-04T11:58:41;29.80;;;11.40;;
4756;SDS011;2392;52.578;13.426;2023-12-04T12:01:09;25.67;;;10.70;;
4756;SDS011;2392;52.578;13.426;2023-12-04T12:03:36;26.37;;;10.97;;
4756;SDS011;2392;52.578;13.426;2023-12-04T12:06:05;30.40;;;10.97;;
4756;SDS011;2392;52.578;13.426;2023-12-04T12:08:32;30.67;;;11.67;;
4756;SDS011;2392;52.578;13.426;2023-12-04T12:10:59;27.90;;;10.20;;
4756;SDS011;2392;52.578;13.426;2023-12-04T12:13:26;29.57;;;11.80;;
4756;SDS011;2392;52.578;13.426;2023-12-04T12:15:54;27.30;;;10.60;;
4756;SDS011;2392;52.578;13.426;2023-12-04T12:18:23;28.20;;;11.47;;
4756;SDS011;2392;52.578;13.426;2023-12-04T12:20:50;26.50;;;10.87;;
4756;SDS011;2392;52.578;13.426;2023-12-04T12:23:17;28.63;;;10.23;;
4756;SDS011;2392;52.578;13.426;2023-12-04T12:25:44;28.10;;;11.07;;
4756;SDS011;2392;52.578;13.426;2023-12-04T12:28:12;27.00;;;10.50;;
4756;SDS011;2392;52.578;13.426;2023-12-04T12:30:39;26.20;;;10.73;;
4756;SDS011;2392;52.578;13.426;2023-12-04T12:33:08;27.23;;;10.97;;
4756;SDS011;2392;52.578;13.426;2023-12-04T12:35:38;29.07;;;11.30;;
4756;SDS011;2392;52.578;13.426;2023-12-04T12:38:05;29.60;;;10.93;;
4756;SDS011;2392;52.578;13.426;2023-12-04T12:40:31;26.17;;;10.37;;
4756;SDS011;2392;52.578;13.426;2023-12-04T12:43:04;28.43;;;10.37;;
4756;SDS011;2392;52.578;13.426;2023-12-04T12:45:38;32.07;;;11.40;;
4756;SDS011;2392;52.578;13.426;2023-12-04T12:48:05;27.67;;;10.60;;
4756;SDS011;2392;52.578;13.426;2023-12-04T12:50:33;27.90;;;11.07;;
4756;SDS011;2392;52.578;13.426;2023-12-04T12:53:01;26.00;;;11.00;;
4756;SDS011;2392;52.578;13.426;2023-12-04T12:55:28;30.20;;;11.70;;
4756;SDS011;2392;52.578;13.426;2023-12-04T12:57:55;27.93;;;10.60;;
4756;SDS011;2392;52.578;13.426;2023-12-04T13:00:22;29.57;;;11.37;;
4756;SDS011;2392;52.578;13.426;2023-12-04T13:02:51;26.10;;;10.80;;
4756;SDS011;2392;52.578;13.426;2023-12-04T13:05:18;30.10;;;11.43;;
4756;SDS011;2392;52.578;13.426;2023-12-04T13:07:47;29.00;;;11.13;;
4756;SDS011;2392;52.578;13.426;2023-12-04T13:10:13;28.20;;;11.60;;
4756;SDS011;2392;52.578;13.426;2023-12-04T13:12:40;30.67;;;10.40;;
4756;SDS011;2392;52.578;13.426;2023-12-04T13:15:07;25.87;;;10.63;;
4756;SDS011;2392;52.578;13.426;2023-12-04T13:17:35;27.40;;;11.47;;
4756;SDS011;2392;52.578;13.426;2023-12-04T13:20:02;27.77;;;11.53;;
4756;SDS011;2392;52.578;13.426;2023-12-04T13:22:30;29.40;;;10.53;;
4756;SDS011;2392;52.578;13.426;2023-12-04T13:24:59;27.47;;;10.67;;
4756;SDS011;2392;52.578;13.426;2023-12-04T13:27:27;30.17;;;10.83;;
4756;SDS011;2392;52.578;13.426;2023-12-04T13:29:54;26.87;;;10.37;;
4756;SDS011;2392;52.578;13.426;2023-12-04T13:32:20;24.97;;;10.30;;
4756;SDS011;2392;52.578;13.426;2023-12-04T13:34:47;27.60;;;11.67;;
4756;SDS011;2392;52.578;13.426;2023-12-04T13:37:14;28.07;;;11.20;;
4756;SDS011;2392;52.578;13.426;2023-12-04T13:39:40;27.30;;;10.63;;
4756;SDS011;2392;52.578;13.426;2023-12-04T13:42:15;28.13;;;10.97;;
4756;SDS011;2392;52.578;13.426;2023-12-04T13:44:59;26.23;;;10.60;;
4756;SDS011;2392;52.578;13.426;2023-12-04T13:47:25;27.80;;;11.23;;
4756;SDS011;2392;52.578;13.426;2023-12-04T13:49:52;28.87;;;11.73;;
4756;SDS011;2392;52.578;13.426;2023-12-04T13:52:20;29.90;;;11.77;;
4756;SDS011;2392;52.578;13.426;2023-12-04T13:54:48;27.83;;;11.73;;
4756;SDS011;2392;52.578;13.426;2023-12-04T13:57:16;27.07;;;11.53;;
4756;SDS011;2392;52.578;13.426;2023-12-04T13:59:46;29.97;;;11.40;;
4756;SDS011;2392;52.578;13.426;2023-12-04T14:02:12;26.97;;;10.50;;
4756;SDS011;2392;52.578;13.426;2023-12-04T14:04:40;29.37;;;11.77;;
4756;SDS011;2392;52.578;13.426;2023-12-04T14:07:06;28.80;;;11.37;;
4756;SDS011;2392;52.578;13.426;2023-12-04T14:09:33;27.23;;;10.83;;
4756;SDS011;2392;52.578;13.426;2023-12-04T14:12:00;31.17;;;12.13;;
4756;SDS011;2392;52.578;13.426;2023-12-04T14:14:29;32.37;;;13.03;;
4756;SDS011;2392;52.578;13.426;2023-12-04T14:16:58;34.70;;;12.67;;
4756;SDS011;2392;52.578;13.426;2023-12-04T14:19:25;31.93;;;13.30;;
4756;SDS011;2392;52.578;13.426;2023-12-04T14:21:51;30.77;;;12.50;;
4756;SDS011;2392;52.578;13.426;2023-12-04T14:24:18;31.83;;;12.50;;
4756;SDS011;2392;52.578;13.426;2023-12-04T14:26:44;32.97;;;12.70;;
4756;SDS011;2392;52.578;13.426;2023-12-04T14:29:11;32.07;;;12.20;;
4756;SDS011;2392;52.578;13.426;2023-12-04T14:31:39;30.93;;;12.47;;
4756;SDS011;2392;52.578;13.426;2023-12-04T14:34:06;36.47;;;13.70;;
4756;SDS011;2392;52.578;13.426;2023-12-04T14:36:33;33.27;;;13.30;;